Time,TemperatureF,DewpointF,PressureIn,WindDirection,WindDirectionDegrees,WindSpeedMPH,WindSpeedGustMPH,Humidity,HourlyPrecipIn,Conditions,Clouds,dailyrainin,SolarRadiationWatts/m^2,SoftwareType,DateUTC
2013-06-24 00:02:00,74.0,66.0,-100.00,South,175,5.0,9.0,77,0.00,,,0.00,0.000000,,2013-06-24 05:02:00,
2013-06-24 00:38:00,74.0,67.0,-100.00,SSE,155,7.0,12.0,79,0.00,,,0.00,0.000000,,2013-06-24 05:38:00,
2013-06-24 00:47:00,74.0,67.0,-100.00,SSE,155,7.0,12.0,79,0.00,,,0.00,0.000000,,2013-06-24 05:47:00,
2013-06-24 00:56:00,74.0,67.0,-100.00,SSE,155,7.0,12.0,79,0.00,,,0.00,0.000000,,2013-06-24 05:56:00,
2013-06-24 01:40:00,73.0,67.0,-100.00,SSE,153,6.0,10.0,81,0.00,,,0.00,0.000000,,2013-06-24 06:40:00,
2013-06-24 01:47:00,73.0,67.0,-100.00,SSE,153,6.0,10.0,81,0.00,,,0.00,0.000000,,2013-06-24 06:47:00,
2013-06-24 01:57:00,73.0,67.0,-100.00,SSE,153,6.0,10.0,81,0.00,,,0.00,0.000000,,2013-06-24 06:57:00,
2013-06-24 02:05:00,73.0,67.0,-100.00,SSE,153,6.0,10.0,81,0.00,,,0.00,0.000000,,2013-06-24 07:05:00,
2013-06-24 02:37:00,72.0,67.0,-100.00,SSE,156,7.0,12.0,85,0.00,,,0.00,0.000000,,2013-06-24 07:37:00,
2013-06-24 02:49:00,72.0,67.0,-100.00,SSE,156,7.0,12.0,85,0.00,,,0.00,0.000000,,2013-06-24 07:49:00,
2013-06-24 02:57:00,72.0,67.0,-100.00,SSE,156,7.0,12.0,85,0.00,,,0.00,0.000000,,2013-06-24 07:57:00,
2013-06-24 03:04:00,72.0,67.0,-100.00,SSE,156,7.0,12.0,85,0.00,,,0.00,0.000000,,2013-06-24 08:04:00,
2013-06-24 03:37:00,71.0,68.0,-100.00,SSE,165,6.0,10.0,89,0.00,,,-99.99,0.000000,,2013-06-24 08:37:00,
2013-06-24 03:47:00,71.0,68.0,-100.00,SSE,165,6.0,10.0,89,0.00,,,-99.99,0.000000,,2013-06-24 08:47:00,
2013-06-24 03:55:00,71.0,68.0,-100.00,SSE,165,6.0,10.0,89,0.00,,,-99.99,0.000000,,2013-06-24 08:55:00,
2013-06-24 04:05:00,71.0,68.0,-100.00,SSE,165,6.0,10.0,89,0.00,,,-99.99,0.000000,,2013-06-24 09:05:00,
2013-06-24 04:38:00,71.0,69.0,-100.00,SSE,153,5.0,7.0,93,0.00,,,0.00,0.000000,,2013-06-24 09:38:00,
2013-06-24 04:49:00,71.0,69.0,-100.00,SSE,153,5.0,7.0,93,0.00,,,0.00,0.000000,,2013-06-24 09:49:00,
2013-06-24 05:00:00,71.0,69.0,-100.00,SSE,153,5.0,7.0,93,0.00,,,0.00,0.000000,,2013-06-24 10:00:00,
2013-06-24 05:38:00,70.0,69.0,-100.00,SSE,154,5.0,8.0,97,0.00,,,0.00,0.000000,,2013-06-24 10:38:00,
2013-06-24 05:51:00,70.0,69.0,-100.00,SSE,154,5.0,8.0,97,0.00,,,0.00,0.000000,,2013-06-24 10:51:00,
2013-06-24 05:58:00,70.0,69.0,-100.00,SSE,154,5.0,8.0,97,0.00,,,0.00,0.000000,,2013-06-24 10:58:00,
2013-06-24 06:35:00,70.0,70.0,-100.00,SE,127,5.0,7.0,99,0.00,,,0.00,1.000000,,2013-06-24 11:35:00,
2013-06-24 06:50:00,70.0,70.0,-100.00,SE,127,5.0,7.0,99,0.00,,,0.00,1.000000,,2013-06-24 11:50:00,
2013-06-24 06:57:00,70.0,70.0,-100.00,SE,127,5.0,7.0,99,0.00,,,0.00,1.000000,,2013-06-24 11:57:00,
2013-06-24 07:05:00,70.0,70.0,-100.00,SE,127,5.0,7.0,99,0.00,,,0.00,1.000000,,2013-06-24 12:05:00,
2013-06-24 07:37:00,72.0,71.0,-100.00,SSE,151,6.0,8.0,96,0.00,,,0.00,55.000000,,2013-06-24 12:37:00,
2013-06-24 07:49:00,72.0,71.0,-100.00,SSE,151,6.0,8.0,96,0.00,,,0.00,55.000000,,2013-06-24 12:49:00,
2013-06-24 07:55:00,72.0,71.0,-100.00,SSE,151,6.0,8.0,96,0.00,,,0.00,55.000000,,2013-06-24 12:55:00,
2013-06-24 08:06:00,72.0,71.0,-100.00,SSE,151,6.0,8.0,96,0.00,,,0.00,55.000000,,2013-06-24 13:06:00,
2013-06-24 08:46:00,74.0,71.0,-100.00,SSE,150,8.0,10.0,91,0.00,,,0.00,229.000000,,2013-06-24 13:46:00,
2013-06-24 08:57:00,74.0,71.0,-100.00,SSE,150,8.0,10.0,91,0.00,,,0.00,229.000000,,2013-06-24 13:57:00,
2013-06-24 09:03:00,74.0,71.0,-100.00,SSE,150,8.0,10.0,91,0.00,,,0.00,229.000000,,2013-06-24 14:03:00,
2013-06-24 09:38:00,76.0,72.0,-100.00,SSE,162,7.0,11.0,87,0.00,,,0.00,447.000000,,2013-06-24 14:38:00,
2013-06-24 09:59:00,76.0,72.0,-100.00,SSE,162,7.0,11.0,87,0.00,,,0.00,447.000000,,2013-06-24 14:59:00,
2013-06-24 10:05:00,76.0,72.0,-100.00,SSE,162,7.0,11.0,87,0.00,,,0.00,447.000000,,2013-06-24 15:05:00,
2013-06-24 10:37:00,78.0,72.0,-100.00,South,176,7.0,12.0,82,0.00,,,0.00,637.000000,,2013-06-24 15:37:00,
2013-06-24 10:48:00,78.0,72.0,-100.00,South,176,7.0,12.0,82,0.00,,,0.00,637.000000,,2013-06-24 15:48:00,
2013-06-24 10:57:00,78.0,72.0,-100.00,South,176,7.0,12.0,82,0.00,,,0.00,637.000000,,2013-06-24 15:57:00,
2013-06-24 11:04:00,78.0,72.0,-100.00,South,176,7.0,12.0,82,0.00,,,0.00,637.000000,,2013-06-24 16:04:00,
2013-06-24 11:36:00,80.0,73.0,-100.00,South,174,10.0,15.0,79,0.00,,,0.00,748.000000,,2013-06-24 16:36:00,
2013-06-24 11:45:00,80.0,73.0,-100.00,South,174,10.0,15.0,79,0.00,,,0.00,748.000000,,2013-06-24 16:45:00,
2013-06-24 11:56:00,80.0,73.0,-100.00,South,174,10.0,15.0,79,0.00,,,0.00,748.000000,,2013-06-24 16:56:00,
2013-06-24 12:05:00,80.0,73.0,-100.00,South,174,10.0,15.0,79,0.00,,,0.00,748.000000,,2013-06-24 17:05:00,
2013-06-24 12:36:00,80.0,73.0,-100.00,South,173,8.0,12.0,78,0.00,,,-99.99,648.000000,,2013-06-24 17:36:00,
2013-06-24 12:47:00,80.0,73.0,-100.00,South,173,8.0,12.0,78,0.00,,,-99.99,648.000000,,2013-06-24 17:47:00,
2013-06-24 12:57:00,80.0,73.0,-100.00,South,173,8.0,12.0,78,0.00,,,-99.99,648.000000,,2013-06-24 17:57:00,
2013-06-24 13:02:00,80.0,73.0,-100.00,South,173,8.0,12.0,78,0.00,,,-99.99,648.000000,,2013-06-24 18:02:00,
2013-06-24 13:37:00,83.0,72.0,-100.00,SSE,156,8.0,13.0,69,0.00,,,0.00,1098.000000,,2013-06-24 18:37:00,
2013-06-24 13:55:00,83.0,72.0,-100.00,SSE,156,8.0,13.0,69,0.00,,,0.00,1098.000000,,2013-06-24 18:55:00,
2013-06-24 14:06:00,83.0,72.0,-100.00,SSE,156,8.0,13.0,69,0.00,,,0.00,1098.000000,,2013-06-24 19:06:00,
2013-06-24 14:37:00,83.0,71.0,-100.00,SSE,165,10.0,15.0,67,0.00,,,0.00,966.000000,,2013-06-24 19:37:00,
2013-06-24 14:46:00,83.0,71.0,-100.00,SSE,165,10.0,15.0,67,0.00,,,0.00,966.000000,,2013-06-24 19:46:00,
2013-06-24 14:57:00,83.0,71.0,-100.00,SSE,165,10.0,15.0,67,0.00,,,0.00,966.000000,,2013-06-24 19:57:00,
2013-06-24 15:05:00,83.0,71.0,-100.00,SSE,165,10.0,15.0,67,0.00,,,0.00,966.000000,,2013-06-24 20:05:00,
2013-06-24 15:34:00,83.0,68.0,-100.00,SSE,159,7.0,16.0,61,0.00,,,0.00,908.000000,,2013-06-24 20:34:00,
2013-06-24 15:47:00,83.0,68.0,-100.00,SSE,159,7.0,16.0,61,0.00,,,0.00,908.000000,,2013-06-24 20:47:00,
2013-06-24 15:56:00,83.0,68.0,-100.00,SSE,159,7.0,16.0,61,0.00,,,0.00,908.000000,,2013-06-24 20:56:00,
2013-06-24 16:04:00,83.0,68.0,-100.00,SSE,159,7.0,16.0,61,0.00,,,0.00,908.000000,,2013-06-24 21:04:00,
2013-06-24 16:39:00,84.0,68.0,-100.00,South,170,8.0,15.0,59,0.00,,,0.00,920.000000,,2013-06-24 21:39:00,
2013-06-24 16:48:00,84.0,68.0,-100.00,South,170,8.0,15.0,59,0.00,,,0.00,920.000000,,2013-06-24 21:48:00,
2013-06-24 16:55:00,84.0,68.0,-100.00,South,170,8.0,15.0,59,0.00,,,0.00,920.000000,,2013-06-24 21:55:00,
2013-06-24 17:04:00,84.0,68.0,-100.00,South,170,8.0,15.0,59,0.00,,,0.00,920.000000,,2013-06-24 22:04:00,
2013-06-24 17:37:00,84.0,69.0,-100.00,SSW,192,8.0,16.0,60,0.00,,,0.00,688.000000,,2013-06-24 22:37:00,
2013-06-24 17:50:00,84.0,69.0,-100.00,SSW,192,8.0,16.0,60,0.00,,,0.00,688.000000,,2013-06-24 22:50:00,
2013-06-24 17:56:00,84.0,69.0,-100.00,SSW,192,8.0,16.0,60,0.00,,,0.00,688.000000,,2013-06-24 22:56:00,
2013-06-24 18:05:00,84.0,69.0,-100.00,SSW,192,8.0,16.0,60,0.00,,,0.00,688.000000,,2013-06-24 23:05:00,
2013-06-24 18:37:00,81.0,67.0,-100.00,SSE,168,6.0,15.0,62,0.00,,,0.00,419.000000,,2013-06-24 23:37:00,
2013-06-24 18:46:00,81.0,67.0,-100.00,SSE,168,6.0,15.0,62,0.00,,,0.00,419.000000,,2013-06-24 23:46:00,
2013-06-24 18:55:00,81.0,67.0,-100.00,SSE,168,6.0,15.0,62,0.00,,,0.00,419.000000,,2013-06-24 23:55:00,
2013-06-24 19:04:00,81.0,67.0,-100.00,SSE,168,6.0,15.0,62,0.00,,,0.00,419.000000,,2013-06-25 00:04:00,
2013-06-24 19:36:00,81.0,68.0,-100.00,SSE,164,6.0,10.0,64,0.00,,,0.00,236.000000,,2013-06-25 00:36:00,
2013-06-24 19:49:00,81.0,68.0,-100.00,SSE,164,6.0,10.0,64,0.00,,,0.00,236.000000,,2013-06-25 00:49:00,
2013-06-24 19:55:00,81.0,68.0,-100.00,SSE,164,6.0,10.0,64,0.00,,,0.00,236.000000,,2013-06-25 00:55:00,
2013-06-24 20:03:00,81.0,68.0,-100.00,SSE,164,6.0,10.0,64,0.00,,,0.00,236.000000,,2013-06-25 01:03:00,
2013-06-24 20:46:00,78.0,67.0,-100.00,South,169,5.0,10.0,70,0.00,,,0.00,83.000000,,2013-06-25 01:46:00,
2013-06-24 21:05:00,78.0,67.0,-100.00,South,169,5.0,10.0,70,0.00,,,0.00,83.000000,,2013-06-25 02:05:00,
2013-06-24 21:57:00,76.0,65.0,-100.00,South,173,6.0,10.0,70,0.00,,,0.00,8.000000,,2013-06-25 02:57:00,
2013-06-24 22:06:00,76.0,65.0,-100.00,South,173,6.0,10.0,70,0.00,,,0.00,8.000000,,2013-06-25 03:06:00,
2013-06-24 22:47:00,75.0,66.0,-100.00,South,174,4.0,11.0,74,0.00,,,0.00,0.000000,,2013-06-25 03:47:00,
2013-06-24 22:57:00,75.0,66.0,-100.00,South,174,4.0,11.0,74,0.00,,,0.00,0.000000,,2013-06-25 03:57:00,
2013-06-24 23:01:00,75.0,66.0,-100.00,South,174,4.0,11.0,74,0.00,,,0.00,0.000000,,2013-06-25 04:01:00,
2013-06-24 23:02:00,75.0,66.0,-100.00,South,174,4.0,11.0,74,0.00,,,0.00,0.000000,,2013-06-25 04:02:00,
2013-06-24 23:34:00,75.0,67.0,-100.00,South,179,5.0,8.0,77,0.00,,,0.00,0.000000,,2013-06-25 04:34:00,
2013-06-24 23:43:00,75.0,67.0,-100.00,South,179,5.0,8.0,77,0.00,,,0.00,0.000000,,2013-06-25 04:43:00,
2013-06-24 23:52:00,75.0,67.0,-100.00,South,179,5.0,8.0,77,0.00,,,0.00,0.000000,,2013-06-25 04:52:00,